createdAt,value
2022-08-17T00:02:28.505Z,104
2022-08-17T00:08:11.790Z,100
2022-08-17T00:13:56.639Z,96
2022-08-17T00:19:36.699Z,104
2022-08-17T00:25:16.898Z,96
2022-08-17T00:30:57.071Z,110
2022-08-17T00:36:37.328Z,104
2022-08-17T00:42:17.467Z,112
2022-08-17T00:47:57.877Z,96
2022-08-17T00:53:38.102Z,98
2022-08-17T00:59:18.470Z,108
2022-08-17T01:04:58.444Z,96
2022-08-17T01:11:02.682Z,106
2022-08-17T01:16:42.952Z,100
2022-08-17T01:22:23.174Z,100
2022-08-17T01:28:03.336Z,102
2022-08-17T01:33:43.536Z,98
2022-08-17T01:39:24.000Z,102
2022-08-17T01:45:04.121Z,110
2022-08-17T01:50:44.427Z,104
2022-08-17T01:56:26.837Z,102
2022-08-17T02:08:02.549Z,100
2022-08-17T02:13:43.032Z,110
2022-08-17T02:19:23.121Z,112
2022-08-17T02:25:03.304Z,102
2022-08-17T02:31:03.801Z,94
2022-08-17T02:36:44.073Z,96
2022-08-17T02:42:24.367Z,100
2022-08-17T02:48:08.956Z,96
2022-08-17T02:53:49.483Z,104
2022-08-17T02:59:29.768Z,100
2022-08-17T03:05:09.864Z,104
2022-08-17T03:10:50.126Z,100
2022-08-17T03:16:30.527Z,104
2022-08-17T03:22:40.757Z,112
2022-08-17T03:28:21.994Z,98
2022-08-17T03:34:02.681Z,98
2022-08-17T03:39:44.069Z,96
2022-08-17T03:45:24.238Z,108
2022-08-17T03:51:04.504Z,104
2022-08-17T03:56:44.801Z,98
2022-08-17T04:02:25.616Z,106
2022-08-17T04:08:06.692Z,100
2022-08-17T04:30:48.231Z,104
2022-08-17T04:36:28.716Z,102
2022-08-17T04:42:08.979Z,94
2022-08-17T04:47:49.218Z,100
2022-08-17T04:53:29.572Z,100
2022-08-17T04:59:09.787Z,106
2022-08-17T05:04:50.118Z,108
2022-08-17T05:10:30.399Z,98
2022-08-17T05:16:10.714Z,108
2022-08-17T05:21:51.816Z,92
2022-08-17T05:27:36.490Z,92
2022-08-17T05:33:16.882Z,104
2022-08-17T05:38:57.258Z,100
2022-08-17T05:44:37.826Z,106
2022-08-17T05:50:30.203Z,94
2022-08-17T05:56:34.002Z,104
2022-08-17T06:02:14.563Z,96
2022-08-17T06:07:54.900Z,96
2022-08-17T06:13:35.099Z,96
2022-08-17T06:19:15.687Z,104
2022-08-17T06:24:55.955Z,94
2022-08-17T08:10:35.426Z,94
2022-08-17T08:16:15.950Z,84
2022-08-17T08:21:56.401Z,116
2022-08-17T08:27:37.288Z,98
2022-08-17T08:33:17.586Z,114
2022-08-17T08:38:57.570Z,104
2022-08-17T08:45:06.113Z,92
2022-08-17T08:50:47.026Z,98
2022-08-17T08:56:27.385Z,106
2022-08-17T09:02:07.351Z,104
2022-08-17T09:07:47.567Z,110
2022-08-17T09:13:27.698Z,112
2022-08-17T09:19:08.655Z,108
2022-08-17T09:24:48.792Z,110
2022-08-17T09:30:31.893Z,98
2022-08-17T09:36:11.863Z,102
2022-08-17T09:41:52.052Z,106
2022-08-17T09:47:33.117Z,98
2022-08-17T09:53:13.355Z,112
2022-08-17T09:58:53.644Z,106
2022-08-17T10:04:37.879Z,104
2022-08-17T10:10:24.405Z,100
2022-08-17T10:16:04.855Z,104
2022-08-17T10:38:49.500Z,100
2022-08-17T10:44:42.034Z,106
2022-08-17T10:50:23.206Z,106
2022-08-17T10:56:06.253Z,112
2022-08-17T11:01:49.836Z,104
2022-08-17T11:07:30.379Z,62
2022-08-17T11:13:11.059Z,54
2022-08-17T11:18:51.408Z,110
2022-08-17T11:24:32.426Z,104
2022-08-17T11:30:17.457Z,98
2022-08-17T11:36:00.443Z,102
2022-08-17T11:41:46.349Z,108
2022-08-17T11:47:35.145Z,104
2022-08-17T11:53:15.332Z,98
2022-08-17T11:58:55.406Z,110
2022-08-17T12:04:36.923Z,106
2022-08-17T12:10:17.297Z,106
2022-08-17T12:15:57.886Z,112
2022-08-17T12:28:09.275Z,104
2022-08-17T12:33:50.332Z,100
2022-08-17T12:39:36.298Z,110
2022-08-17T12:45:37.311Z,124
2022-08-17T12:51:41.455Z,100
2022-08-17T12:57:21.797Z,106
2022-08-17T13:03:03.102Z,108
2022-08-17T13:08:43.719Z,110
2022-08-17T13:14:24.568Z,104
2022-08-17T13:20:05.342Z,110
2022-08-17T13:25:45.399Z,126
2022-08-17T13:31:39.478Z,60
2022-08-17T13:37:35.982Z,78
2022-08-17T13:43:16.912Z,98
2022-08-17T13:54:57.230Z,60
2022-08-17T14:00:37.481Z,144
2022-08-17T14:12:01.165Z,8
2022-08-17T14:17:48.652Z,2
2022-08-17T14:23:34.872Z,4
2022-08-17T14:29:16.198Z,42
2022-08-17T14:35:08.336Z,10
2022-08-17T14:40:48.526Z,8
2022-08-17T14:46:28.721Z,24
2022-08-17T14:52:09.451Z,6
2022-08-17T14:57:51.525Z,16
2022-08-17T15:03:35.038Z,8
2022-08-17T15:09:18.506Z,24
2022-08-17T15:26:56.946Z,43
2022-08-17T15:32:39.243Z,94
2022-08-17T15:43:28.687Z,129
2022-08-17T15:49:08.858Z,94
2022-08-17T15:54:48.792Z,90
2022-08-17T16:00:28.969Z,84
2022-08-17T16:06:14.862Z,98
2022-08-17T16:11:57.329Z,90
2022-08-17T16:17:41.139Z,96
2022-08-17T16:23:24.785Z,90
2022-08-17T16:29:04.968Z,94
2022-08-17T16:34:45.972Z,96
2022-08-17T16:40:26.153Z,94
2022-08-17T16:46:06.443Z,98
2022-08-17T16:51:46.714Z,86
2022-08-17T16:57:27.022Z,86
2022-08-17T17:03:21.259Z,78
2022-08-17T17:09:01.580Z,80
2022-08-17T17:14:41.853Z,94
2022-08-17T17:26:02.226Z,90
2022-08-17T17:31:44.669Z,94
2022-08-17T17:37:25.351Z,110
2022-08-17T17:43:41.681Z,86
2022-08-17T17:49:22.372Z,76
2022-08-17T17:55:02.878Z,94
2022-08-17T18:00:43.150Z,124
2022-08-17T18:06:30.677Z,94
2022-08-17T18:12:11.102Z,90
2022-08-17T18:17:53.958Z,90
2022-08-17T18:23:34.044Z,110
2022-08-17T18:29:16.793Z,104
2022-08-17T18:34:56.961Z,122
2022-08-17T18:40:37.254Z,112
2022-08-17T18:57:59.020Z,110
2022-08-17T19:03:49.242Z,104
2022-08-17T19:09:29.355Z,110
2022-08-17T19:30:55.576Z,129
2022-08-17T19:36:36.788Z,102
2022-08-17T19:48:05.960Z,116
2022-08-17T19:54:12.413Z,100
2022-08-17T19:59:53.969Z,110
2022-08-17T20:06:16.544Z,106
2022-08-17T20:17:03.520Z,98
2022-08-17T20:22:56.138Z,110
2022-08-17T20:33:37.915Z,90
2022-08-17T20:44:23.105Z,94
2022-08-17T20:50:03.458Z,96
2022-08-17T20:55:53.858Z,108
2022-08-17T21:01:35.097Z,104
2022-08-17T21:07:15.737Z,100
2022-08-17T21:12:56.216Z,94
2022-08-17T21:18:39.455Z,110
2022-08-17T21:24:20.018Z,94
2022-08-17T21:30:00.841Z,104
2022-08-17T21:52:48.340Z,96
2022-08-17T21:58:28.864Z,104
2022-08-17T22:04:09.696Z,100
2022-08-17T22:09:50.076Z,98
2022-08-17T22:15:30.408Z,110
2022-08-17T22:21:10.707Z,120
2022-08-17T22:26:50.924Z,98
2022-08-17T22:32:31.357Z,100
2022-08-17T22:38:12.011Z,106
2022-08-17T22:43:52.742Z,96
2022-08-17T22:49:33.623Z,104
2022-08-17T22:55:14.389Z,110
2022-08-17T23:00:54.682Z,100
2022-08-17T23:06:35.107Z,98
2022-08-17T23:12:15.660Z,104
2022-08-17T23:17:55.887Z,124
2022-08-17T23:23:36.174Z,94
2022-08-17T23:29:16.551Z,106
2022-08-17T23:40:40.253Z,106
2022-08-17T23:46:20.672Z,110
2022-08-17T23:52:00.969Z,94
2022-08-17T23:57:41.222Z,94
